Warsaw, IN

2:58 PM EDT on April 26, 2017 (GMT -0400)
ME1407 | | Change Station

Elev 875 ft 41.33 °N, 85.77 °W | Updated 40 minutes ago

Scattered Clouds
Scattered Clouds
80.0 °F
Feels Like 81 °F
N
10.0
Wind Variable Wind from SSW

Today
High -- | Low -- °F
--% Chance of Precip.
Yesterday
High -- | Low -- °F
Precip. -- in
Pressure 29.51 in
Visibility 10.0 miles
Clouds Scattered Clouds 4900 ft
Scattered Clouds 6000 ft
Heat Index 81 °F
Dew Point 63 °F
Humidity 57%
Rainfall in
Snow Depth Not available.
6:47 AM 8:35 PM
New Moon, 0% visible
METAR KASW 261835Z AUTO 20011G18KT 167V227 10SM SCT049 SCT060 26/14 A2951 RMK AO2
Pressure 29.51 in
Visibility 10.0 miles
Clouds Scattered Clouds 4900 ft
Scattered Clouds 6000 ft
Heat Index 81 °F
Dew Point 63 °F
Humidity 57%
Rainfall in
Snow Depth Not available.
6:47 AM 8:35 PM
New Moon, 0% visible
METAR KASW 261835Z AUTO 20011G18KT 167V227 10SM SCT049 SCT060 26/14 A2951 RMK AO2

Get Severe Weather Alerts

Thanks for signing up!

Be on the lookout for a verification email in your inbox.

You'll start receiving the daily forecast at 8 AM.

×

10-Day Weather Forecast

Almanac

Astronomy

Apr. 26, 2017 Rise Set
Actual Time
Civil Twilight
Nautical Twilight
Astronomical Twilight
Moon
Length of Visible Light
Length of Day
Tomorrow will be .
, % of the Moon is Illuminated

Today's Extremes

State Highs State Lows

Community

WunderPhotos

WunderBlog® & News

Nearby

Air Quality

  Air Quality AQ Index Pollutant
Not available.

Snow Depth

Station Depth Elevation

Earthquake Activity

City Distance Mag. Time & Date
Minimum magnitude displayed is 2.5.

Coastal Water Temperatures

Place Temperature

Stations

Nearby Weather Stations

Station Location Temp. Windchill Dew Point Humidity Wind Precip. Elev Updated Type
                   

Watches & Warnings

There are currently no watches in effect.